createdAt,value
2022-12-05T00:01:42.488Z,49.98
2022-12-05T00:04:11.645Z,49.95
2022-12-05T00:06:39.674Z,50.08
2022-12-05T00:09:07.505Z,49.93
2022-12-05T00:11:36.081Z,50.07
2022-12-05T00:14:04.388Z,50.06
2022-12-05T00:16:32.769Z,50.14
2022-12-05T00:19:01.702Z,50.21
2022-12-05T00:21:30.789Z,50.23
2022-12-05T00:23:58.716Z,50.14
2022-12-05T00:26:26.595Z,50.00
2022-12-05T00:28:54.248Z,50.03
2022-12-05T00:31:22.505Z,50.11
2022-12-05T00:33:50.153Z,50.12
2022-12-05T00:36:22.828Z,50.12
2022-12-05T00:38:50.431Z,50.17
2022-12-05T00:41:19.074Z,50.06
2022-12-05T00:43:46.661Z,50.19
2022-12-05T00:46:16.164Z,50.22
2022-12-05T00:48:43.715Z,50.16
2022-12-05T00:51:12.595Z,50.13
2022-12-05T00:53:41.504Z,50.15
2022-12-05T00:56:10.266Z,50.09
2022-12-05T00:58:37.761Z,50.18
2022-12-05T01:01:08.880Z,50.10
2022-12-05T01:03:36.431Z,50.17
2022-12-05T01:06:05.834Z,50.14
2022-12-05T01:08:33.453Z,50.21
2022-12-05T01:11:02.290Z,50.25
2022-12-05T01:13:29.809Z,50.21
2022-12-05T01:15:57.269Z,50.25
2022-12-05T01:18:24.888Z,50.20
2022-12-05T01:20:52.342Z,50.22
2022-12-05T01:23:19.835Z,50.40
2022-12-05T01:25:48.189Z,50.17
2022-12-05T01:28:17.357Z,50.27
2022-12-05T01:30:46.210Z,50.33
2022-12-05T01:33:13.810Z,50.25
2022-12-05T01:35:41.601Z,50.20
2022-12-05T01:38:09.195Z,50.04
2022-12-05T01:40:36.831Z,50.36
2022-12-05T01:43:04.372Z,50.13
2022-12-05T01:45:35.075Z,50.31
2022-12-05T01:48:04.505Z,50.32
2022-12-05T01:50:32.052Z,50.20
2022-12-05T01:52:59.507Z,50.33
2022-12-05T01:55:26.962Z,50.24
2022-12-05T01:57:54.403Z,50.09
2022-12-05T02:00:22.185Z,50.37
2022-12-05T02:02:55.607Z,50.26
2022-12-05T02:05:24.222Z,50.18
2022-12-05T02:07:51.726Z,50.23
2022-12-05T02:10:19.637Z,50.28
2022-12-05T02:12:47.073Z,50.28
2022-12-05T02:15:29.650Z,50.34
2022-12-05T02:18:03.864Z,50.39
2022-12-05T02:20:37.097Z,50.35
2022-12-05T02:23:41.675Z,50.21
2022-12-05T02:26:48.952Z,50.38
2022-12-05T02:29:45.982Z,50.27
2022-12-05T02:32:16.115Z,50.41
2022-12-05T02:34:46.215Z,50.31
2022-12-05T02:37:15.303Z,50.39
2022-12-05T02:39:44.953Z,50.59
2022-12-05T02:42:14.256Z,50.13
2022-12-05T02:44:43.936Z,50.45
2022-12-05T02:47:12.867Z,50.40
2022-12-05T02:49:40.313Z,50.50
2022-12-05T02:52:09.290Z,50.34
2022-12-05T02:54:38.311Z,50.32
2022-12-05T02:57:05.933Z,50.53
2022-12-05T02:59:33.415Z,50.56
2022-12-05T03:02:00.857Z,50.47
2022-12-05T03:04:29.710Z,50.58
2022-12-05T03:06:59.741Z,50.68
2022-12-05T03:09:29.536Z,50.54
2022-12-05T03:12:06.908Z,50.60
2022-12-05T03:14:35.794Z,50.65
2022-12-05T03:17:04.261Z,50.56
2022-12-05T03:19:35.080Z,50.66
2022-12-05T03:22:03.292Z,50.61
2022-12-05T03:24:31.058Z,50.50
2022-12-05T03:27:02.748Z,50.48
2022-12-05T03:29:32.393Z,50.58
2022-12-05T03:32:06.656Z,50.61
2022-12-05T03:34:43.820Z,50.59
2022-12-05T03:37:13.620Z,50.38
2022-12-05T03:39:41.056Z,50.56
2022-12-05T03:42:10.903Z,50.61
2022-12-05T03:44:41.061Z,50.67
2022-12-05T03:47:10.523Z,50.63
2022-12-05T03:49:42.239Z,50.60
2022-12-05T03:52:11.382Z,50.75
2022-12-05T03:54:39.725Z,50.74
2022-12-05T03:57:09.528Z,50.68
2022-12-05T03:59:38.150Z,50.64
2022-12-05T04:02:06.961Z,50.84
2022-12-05T04:04:35.620Z,50.66
2022-12-05T04:07:05.412Z,50.73
2022-12-05T04:09:34.622Z,50.68
2022-12-05T04:12:03.139Z,50.81
2022-12-05T04:14:33.899Z,50.71
2022-12-05T04:17:04.215Z,50.63
2022-12-05T04:19:54.872Z,50.76
2022-12-05T04:22:23.351Z,50.84
2022-12-05T04:25:08.636Z,50.71
2022-12-05T04:27:39.919Z,50.83
2022-12-05T04:30:08.869Z,50.72
2022-12-05T04:32:39.307Z,50.79
2022-12-05T04:35:10.415Z,50.72
2022-12-05T04:37:40.564Z,50.75
2022-12-05T04:40:09.036Z,50.65
2022-12-05T04:42:36.666Z,50.86
2022-12-05T04:45:05.936Z,50.81
2022-12-05T04:47:36.446Z,50.78
2022-12-05T04:50:03.943Z,50.77
2022-12-05T04:52:32.465Z,50.63
2022-12-05T04:55:03.351Z,50.65
2022-12-05T04:57:32.898Z,50.87
2022-12-05T05:02:20.762Z,50.88
2022-12-05T05:04:50.914Z,50.87
2022-12-05T05:07:18.648Z,50.94
2022-12-05T05:09:46.168Z,50.59
2022-12-05T05:12:18.961Z,50.80
2022-12-05T05:14:46.560Z,50.72
2022-12-05T05:17:13.998Z,50.85
2022-12-05T05:19:41.435Z,50.78
2022-12-05T05:22:08.864Z,50.74
2022-12-05T05:24:36.327Z,50.67
2022-12-05T05:27:03.743Z,50.84
2022-12-05T05:29:32.489Z,50.75
2022-12-05T05:31:59.902Z,50.63
2022-12-05T05:34:28.614Z,50.67
2022-12-05T05:36:56.061Z,50.57
2022-12-05T05:39:23.794Z,50.56
2022-12-05T05:41:51.234Z,50.58
2022-12-05T05:44:18.688Z,50.58
2022-12-05T05:46:47.553Z,50.56
2022-12-05T05:49:15.051Z,50.59
2022-12-05T05:51:42.464Z,50.43
2022-12-05T05:54:10.011Z,50.42
2022-12-05T05:56:37.442Z,50.44
2022-12-05T05:59:04.872Z,50.42
2022-12-05T06:01:32.342Z,50.57
2022-12-05T06:04:01.268Z,50.48
2022-12-05T06:06:28.803Z,50.62
2022-12-05T06:08:56.849Z,50.44
2022-12-05T06:11:26.562Z,50.57
2022-12-05T06:13:54.339Z,50.42
2022-12-05T06:16:21.904Z,50.54
2022-12-05T06:18:49.759Z,50.49
2022-12-05T06:21:18.541Z,50.59
2022-12-05T06:23:46.045Z,50.44
2022-12-05T06:26:14.350Z,50.62
2022-12-05T06:28:42.164Z,50.60
2022-12-05T06:31:10.033Z,50.55
2022-12-05T06:33:37.626Z,50.52
2022-12-05T06:36:06.251Z,50.44
2022-12-05T06:38:39.018Z,50.63
2022-12-05T06:41:09.765Z,50.44
2022-12-05T06:43:37.220Z,50.49
2022-12-05T06:46:05.490Z,50.52
2022-12-05T06:48:32.998Z,50.62
2022-12-05T06:51:00.473Z,50.43
2022-12-05T06:53:27.925Z,50.50
2022-12-05T06:55:59.943Z,50.62
2022-12-05T06:58:27.698Z,50.69
2022-12-05T07:01:12.997Z,50.67
2022-12-05T07:03:40.543Z,50.85
2022-12-05T07:06:08.521Z,50.98
2022-12-05T07:08:36.038Z,51.17
2022-12-05T07:11:04.922Z,51.35
2022-12-05T07:13:32.727Z,51.46
2022-12-05T07:16:00.409Z,51.46
2022-12-05T07:18:27.989Z,51.87
2022-12-05T07:21:14.544Z,52.64
2022-12-05T07:23:42.460Z,53.36
2022-12-05T07:26:12.632Z,53.64
2022-12-05T07:28:39.902Z,54.16
2022-12-05T07:31:08.169Z,54.69
2022-12-05T07:33:35.682Z,54.92
2022-12-05T07:36:03.582Z,54.86
2022-12-05T07:38:31.105Z,55.17
2022-12-05T07:40:58.956Z,55.29
2022-12-05T07:43:27.703Z,55.53
2022-12-05T07:45:55.216Z,55.29
2022-12-05T07:48:22.745Z,55.50
2022-12-05T07:50:50.216Z,55.68
2022-12-05T07:53:17.675Z,55.63
2022-12-05T07:55:45.124Z,55.63
2022-12-05T07:58:12.550Z,55.48
2022-12-05T08:00:41.328Z,55.95
2022-12-05T08:03:08.760Z,56.18
2022-12-05T08:05:37.464Z,56.16
2022-12-05T08:08:05.192Z,56.57
2022-12-05T08:10:32.732Z,56.49
2022-12-05T08:13:00.232Z,56.60
2022-12-05T08:15:27.663Z,56.76
2022-12-05T08:17:56.528Z,56.78
2022-12-05T08:20:24.000Z,56.94
2022-12-05T08:22:52.743Z,57.20
2022-12-05T08:25:20.199Z,57.25
2022-12-05T08:27:47.640Z,57.15
2022-12-05T08:30:15.197Z,57.08
2022-12-05T08:32:42.678Z,56.97
2022-12-05T08:35:11.527Z,56.68
2022-12-05T08:37:38.948Z,56.73
2022-12-05T08:40:07.483Z,57.05
2022-12-05T08:42:34.946Z,57.27
2022-12-05T08:45:02.503Z,57.20
2022-12-05T08:47:32.331Z,57.04
2022-12-05T08:50:00.080Z,57.32
2022-12-05T08:52:31.845Z,57.29
2022-12-05T08:54:59.794Z,57.12
2022-12-05T08:57:27.504Z,57.02
2022-12-05T08:59:54.953Z,56.64
2022-12-05T09:02:22.523Z,56.59
2022-12-05T09:04:54.035Z,56.65
2022-12-05T09:07:21.750Z,56.58
2022-12-05T09:09:50.547Z,56.40
2022-12-05T09:12:17.994Z,56.40
2022-12-05T09:14:45.414Z,56.40
2022-12-05T09:17:12.867Z,56.37
2022-12-05T09:19:40.307Z,56.45
2022-12-05T09:22:07.812Z,56.29
2022-12-05T09:24:35.321Z,56.33
2022-12-05T09:27:04.282Z,56.39
2022-12-05T09:29:32.417Z,56.56
2022-12-05T09:31:59.877Z,56.62
2022-12-05T09:34:27.440Z,56.73
2022-12-05T09:37:10.296Z,56.84
2022-12-05T09:39:44.112Z,56.75
2022-12-05T09:42:31.199Z,56.64
2022-12-05T09:45:10.481Z,56.54
2022-12-05T09:47:43.799Z,56.39
2022-12-05T09:50:17.341Z,56.56
2022-12-05T09:52:45.981Z,56.31
2022-12-05T09:55:14.734Z,56.35
2022-12-05T09:57:46.189Z,56.34
2022-12-05T10:00:15.471Z,56.25
2022-12-05T10:02:48.584Z,56.05
2022-12-05T10:05:18.632Z,56.04
2022-12-05T10:07:51.712Z,56.12
2022-12-05T10:10:35.502Z,56.11
2022-12-05T10:13:19.078Z,55.93
2022-12-05T10:15:48.869Z,55.75
2022-12-05T10:18:25.498Z,55.65
2022-12-05T10:20:54.969Z,55.54
2022-12-05T10:23:55.416Z,55.73
2022-12-05T10:26:12.208Z,55.51
2022-12-05T10:28:42.669Z,55.89
2022-12-05T10:31:11.205Z,55.57
2022-12-05T10:33:39.626Z,55.67
2022-12-05T10:36:16.129Z,55.68
2022-12-05T10:38:44.097Z,55.47
2022-12-05T10:41:12.624Z,55.46
2022-12-05T10:43:42.879Z,55.58
2022-12-05T10:46:15.586Z,55.43
2022-12-05T10:48:44.618Z,55.52
2022-12-05T10:51:15.122Z,55.62
2022-12-05T10:53:43.466Z,55.31
2022-12-05T10:56:43.065Z,55.25
2022-12-05T10:59:13.122Z,55.32
2022-12-05T11:01:45.644Z,55.66
2022-12-05T11:04:21.167Z,55.81
2022-12-05T11:06:51.162Z,55.66
2022-12-05T11:09:20.610Z,55.76
2022-12-05T11:11:58.737Z,55.62
2022-12-05T11:14:27.642Z,55.58
2022-12-05T11:16:56.517Z,55.62
2022-12-05T11:19:28.280Z,55.50
2022-12-05T11:21:55.917Z,55.53
2022-12-05T11:24:25.526Z,55.33
2022-12-05T11:26:53.001Z,55.33
2022-12-05T11:29:36.069Z,55.42
2022-12-05T11:32:03.865Z,55.83
2022-12-05T11:34:34.451Z,56.23
2022-12-05T11:37:04.258Z,55.86
2022-12-05T11:39:32.418Z,56.43
2022-12-05T11:42:10.555Z,56.74
2022-12-05T11:45:18.098Z,54.34
2022-12-05T11:48:03.677Z,54.75
2022-12-05T11:50:37.816Z,55.36
2022-12-05T11:53:13.852Z,56.96
2022-12-05T11:55:43.059Z,57.80
2022-12-05T11:58:40.977Z,58.46
2022-12-05T12:01:13.052Z,58.62
2022-12-05T12:03:59.301Z,54.00
2022-12-05T12:06:29.673Z,54.58
2022-12-05T12:09:06.029Z,55.69
2022-12-05T12:11:35.762Z,56.19
2022-12-05T12:14:14.357Z,56.45
2022-12-05T12:16:59.069Z,56.87
2022-12-05T12:19:41.540Z,57.16
2022-12-05T12:22:19.330Z,57.06
2022-12-05T12:24:56.558Z,57.10
2022-12-05T12:27:30.752Z,57.31
2022-12-05T12:30:02.584Z,57.41
2022-12-05T12:32:34.180Z,57.51
2022-12-05T12:35:18.403Z,57.69
2022-12-05T12:37:50.355Z,58.02
2022-12-05T12:40:20.076Z,58.06
2022-12-05T12:42:55.443Z,58.04
2022-12-05T12:45:49.317Z,58.01
2022-12-05T12:48:33.719Z,58.33
2022-12-05T12:51:02.497Z,58.08
2022-12-05T12:53:40.522Z,57.83
2022-12-05T12:56:14.595Z,57.73
2022-12-05T12:58:47.872Z,57.73
2022-12-05T13:01:21.646Z,57.87
2022-12-05T13:03:51.935Z,57.87
2022-12-05T13:06:26.050Z,57.94
2022-12-05T13:08:54.580Z,57.78
2022-12-05T13:11:22.081Z,58.05
2022-12-05T13:13:50.759Z,57.97
2022-12-05T13:16:23.852Z,57.65
2022-12-05T13:18:51.346Z,57.59
2022-12-05T13:21:18.916Z,57.83
2022-12-05T13:23:48.695Z,57.94
2022-12-05T13:26:16.785Z,58.17
2022-12-05T13:28:50.721Z,58.28
2022-12-05T13:31:19.337Z,58.75
2022-12-05T13:33:47.640Z,59.03
2022-12-05T13:36:33.690Z,59.07
2022-12-05T13:39:21.209Z,59.15
2022-12-05T13:42:07.453Z,59.62
2022-12-05T13:44:40.394Z,59.77
2022-12-05T13:47:10.028Z,60.19
2022-12-05T13:49:43.667Z,59.75
2022-12-05T13:52:13.681Z,59.40
2022-12-05T13:54:45.331Z,59.32
2022-12-05T13:57:46.887Z,59.78
2022-12-05T14:00:31.200Z,59.30
2022-12-05T14:03:04.779Z,59.26
2022-12-05T14:05:53.452Z,58.95
2022-12-05T14:08:56.460Z,59.00
2022-12-05T14:11:25.545Z,58.81
2022-12-05T14:13:53.111Z,58.96
2022-12-05T14:16:47.927Z,59.46
2022-12-05T14:19:38.762Z,59.21
2022-12-05T14:22:50.851Z,58.85
2022-12-05T14:25:35.408Z,58.64
2022-12-05T14:28:12.693Z,58.90
2022-12-05T14:30:46.056Z,58.90
2022-12-05T14:33:14.804Z,58.76
2022-12-05T14:35:43.252Z,58.52
2022-12-05T14:38:21.279Z,58.81
2022-12-05T14:40:48.885Z,59.39
2022-12-05T14:43:20.324Z,59.71
2022-12-05T14:45:57.906Z,59.92
2022-12-05T14:48:28.532Z,59.41
2022-12-05T14:50:56.404Z,57.70
2022-12-05T14:53:27.635Z,56.64
2022-12-05T14:55:55.880Z,58.02
2022-12-05T14:58:33.859Z,58.46
2022-12-05T15:01:02.692Z,58.95
2022-12-05T15:03:31.609Z,59.08
2022-12-05T15:06:03.456Z,59.22
2022-12-05T15:08:32.952Z,59.33
2022-12-05T15:11:00.418Z,58.69
2022-12-05T15:13:29.274Z,58.95
2022-12-05T15:16:00.209Z,59.29
2022-12-05T15:18:29.268Z,59.14
2022-12-05T15:20:59.035Z,59.24
2022-12-05T15:23:42.800Z,59.23
2022-12-05T15:26:45.460Z,59.10
2022-12-05T15:29:08.280Z,59.51
2022-12-05T15:31:37.613Z,59.20
2022-12-05T15:34:07.972Z,58.92
2022-12-05T15:36:36.731Z,58.85
2022-12-05T15:39:06.193Z,58.89
2022-12-05T15:41:33.673Z,58.79
2022-12-05T15:44:01.131Z,58.53
2022-12-05T15:46:29.927Z,58.96
2022-12-05T15:48:58.284Z,58.82
2022-12-05T15:51:28.432Z,58.96
2022-12-05T15:53:56.617Z,58.99
2022-12-05T15:56:25.093Z,58.83
2022-12-05T15:58:53.349Z,59.19
2022-12-05T16:01:21.556Z,58.82
2022-12-05T16:03:52.164Z,59.10
2022-12-05T16:06:20.965Z,58.88
2022-12-05T16:08:48.428Z,58.74
2022-12-05T16:11:15.932Z,58.73
2022-12-05T16:13:43.856Z,58.76
2022-12-05T16:16:14.574Z,58.96
2022-12-05T16:18:42.035Z,59.41
2022-12-05T16:21:38.006Z,59.22
2022-12-05T16:24:08.359Z,59.12
2022-12-05T16:26:39.992Z,59.86
2022-12-05T16:29:09.268Z,59.95
2022-12-05T16:31:36.804Z,60.37
2022-12-05T16:34:05.375Z,60.61
2022-12-05T16:36:34.242Z,60.76
2022-12-05T16:39:02.955Z,61.08
2022-12-05T16:41:34.993Z,61.01
2022-12-05T16:44:10.749Z,61.33
2022-12-05T16:46:44.582Z,61.30
2022-12-05T16:49:25.304Z,61.15
2022-12-05T16:52:01.462Z,60.88
2022-12-05T16:54:29.055Z,60.76
2022-12-05T16:56:56.720Z,60.69
2022-12-05T16:59:26.002Z,60.49
2022-12-05T17:01:53.557Z,60.37
2022-12-05T17:04:21.097Z,60.82
2022-12-05T17:06:48.609Z,60.63
2022-12-05T17:09:17.379Z,60.62
2022-12-05T17:11:45.765Z,60.54
2022-12-05T17:14:14.927Z,60.55
2022-12-05T17:16:42.496Z,60.55
2022-12-05T17:19:10.420Z,60.74
2022-12-05T17:21:37.967Z,60.53
2022-12-05T17:24:06.069Z,60.41
2022-12-05T17:26:34.858Z,59.92
2022-12-05T17:29:02.340Z,59.87
2022-12-05T17:31:29.854Z,59.86
2022-12-05T17:33:57.372Z,60.40
2022-12-05T17:36:24.977Z,60.29
2022-12-05T17:38:52.429Z,60.07
2022-12-05T17:41:20.913Z,60.49
2022-12-05T17:43:51.134Z,61.08
2022-12-05T17:46:18.865Z,60.72
2022-12-05T17:48:46.870Z,60.71
2022-12-05T17:51:14.618Z,60.66
2022-12-05T17:53:42.244Z,60.38
2022-12-05T17:56:09.689Z,59.54
2022-12-05T17:58:37.192Z,59.23
2022-12-05T18:01:06.258Z,59.22
2022-12-05T18:03:33.858Z,59.41
2022-12-05T18:06:03.655Z,59.30
2022-12-05T18:08:31.088Z,60.15
2022-12-05T18:10:58.548Z,59.55
2022-12-05T18:13:26.003Z,59.67
2022-12-05T18:15:56.827Z,59.55
2022-12-05T18:18:27.220Z,59.56
2022-12-05T18:20:54.632Z,59.90
2022-12-05T18:23:22.094Z,59.64
2022-12-05T18:25:58.044Z,58.99
2022-12-05T18:28:25.509Z,59.03
2022-12-05T18:30:59.209Z,58.86
2022-12-05T18:33:28.009Z,58.93
2022-12-05T18:35:55.443Z,58.62
2022-12-05T18:38:22.906Z,59.15
2022-12-05T18:40:50.524Z,59.14
2022-12-05T18:43:18.081Z,58.80
2022-12-05T18:45:46.596Z,58.74
2022-12-05T18:48:37.947Z,58.81
2022-12-05T18:51:09.904Z,58.58
2022-12-05T18:53:37.354Z,58.30
2022-12-05T18:56:22.335Z,58.27
2022-12-05T18:58:54.096Z,58.25
2022-12-05T19:01:21.959Z,58.48
2022-12-05T19:03:50.250Z,58.51
2022-12-05T19:06:20.300Z,58.77
2022-12-05T19:08:47.953Z,58.76
2022-12-05T19:11:16.178Z,58.38
2022-12-05T19:13:43.735Z,58.68
2022-12-05T19:16:13.915Z,58.94
2022-12-05T19:18:41.227Z,58.55
2022-12-05T19:21:08.664Z,58.64
2022-12-05T19:23:37.549Z,58.67
2022-12-05T19:26:05.962Z,58.54
2022-12-05T19:28:33.500Z,58.47
2022-12-05T19:31:01.663Z,58.44
2022-12-05T19:33:33.375Z,58.40
2022-12-05T19:36:05.245Z,58.27
2022-12-05T19:38:33.740Z,58.67
2022-12-05T19:41:02.587Z,58.66
2022-12-05T19:43:30.647Z,58.33
2022-12-05T19:45:58.280Z,58.09
2022-12-05T19:48:25.867Z,58.44
2022-12-05T19:50:55.019Z,58.48
2022-12-05T19:53:22.475Z,58.55
2022-12-05T19:55:49.962Z,58.32
2022-12-05T19:58:18.765Z,58.05
2022-12-05T20:00:47.327Z,58.22
2022-12-05T20:03:14.829Z,58.24
2022-12-05T20:05:42.292Z,58.21
2022-12-05T20:08:09.920Z,58.17
2022-12-05T20:10:37.785Z,58.21
2022-12-05T20:13:12.893Z,58.30
2022-12-05T20:15:53.203Z,58.45
2022-12-05T20:18:20.643Z,58.44
2022-12-05T20:20:57.377Z,58.77
2022-12-05T20:23:24.844Z,58.45
2022-12-05T20:25:52.355Z,58.09
2022-12-05T20:28:19.788Z,58.14
2022-12-05T20:30:47.917Z,58.07
2022-12-05T20:33:16.787Z,58.29
2022-12-05T20:35:44.234Z,58.33
2022-12-05T20:38:11.703Z,58.18
2022-12-05T20:40:39.173Z,58.18
2022-12-05T20:43:06.629Z,58.21
2022-12-05T20:45:34.734Z,58.22
2022-12-05T20:48:02.201Z,58.39
2022-12-05T20:50:30.945Z,58.46
2022-12-05T20:52:58.392Z,58.46
2022-12-05T20:55:25.867Z,58.28
2022-12-05T20:57:53.316Z,58.20
2022-12-05T21:00:22.235Z,57.96
2022-12-05T21:02:49.744Z,58.25
2022-12-05T21:05:17.453Z,58.14
2022-12-05T21:07:46.233Z,57.96
2022-12-05T21:10:13.733Z,58.13
2022-12-05T21:12:41.181Z,58.46
2022-12-05T21:15:09.969Z,58.66
2022-12-05T21:17:37.715Z,58.50
2022-12-05T21:20:06.391Z,58.20
2022-12-05T21:22:33.817Z,57.87
2022-12-05T21:25:02.620Z,57.76
2022-12-05T21:27:31.001Z,57.92
2022-12-05T21:29:58.642Z,57.83
2022-12-05T21:32:26.275Z,57.89
2022-12-05T21:34:53.928Z,57.82
2022-12-05T21:37:21.378Z,57.85
2022-12-05T21:39:48.907Z,57.94
2022-12-05T21:42:17.647Z,57.97
2022-12-05T21:44:45.140Z,58.01
2022-12-05T21:47:12.592Z,58.30
2022-12-05T21:49:40.044Z,58.33
2022-12-05T21:52:07.498Z,58.16
2022-12-05T21:54:34.957Z,58.29
2022-12-05T21:57:02.395Z,58.00
2022-12-05T21:59:32.502Z,57.88
2022-12-05T22:01:59.814Z,57.83
2022-12-05T22:04:27.268Z,58.05
2022-12-05T22:06:54.703Z,58.15
2022-12-05T22:09:22.161Z,58.00
2022-12-05T22:11:49.752Z,57.99
2022-12-05T22:14:17.208Z,58.10
2022-12-05T22:16:46.063Z,57.91
2022-12-05T22:19:13.925Z,58.11
2022-12-05T22:21:41.400Z,58.29
2022-12-05T22:24:08.920Z,58.35
2022-12-05T22:26:36.389Z,58.41
2022-12-05T22:29:03.839Z,58.43
2022-12-05T22:31:31.312Z,58.33
2022-12-05T22:34:00.564Z,58.60
2022-12-05T22:36:28.012Z,58.38
2022-12-05T22:38:55.459Z,58.12
2022-12-05T22:41:23.823Z,57.84
2022-12-05T22:43:55.156Z,58.20
2022-12-05T22:46:22.785Z,58.32
2022-12-05T22:48:50.896Z,58.16
2022-12-05T22:51:20.420Z,58.54
2022-12-05T22:53:47.883Z,58.33
2022-12-05T22:56:16.358Z,58.39
2022-12-05T22:58:44.162Z,58.58
2022-12-05T23:01:12.319Z,58.45
2022-12-05T23:03:39.997Z,58.35
2022-12-05T23:06:11.464Z,58.37
2022-12-05T23:08:40.993Z,58.12
2022-12-05T23:11:08.716Z,58.06
2022-12-05T23:13:36.449Z,58.13
2022-12-05T23:16:08.018Z,58.30
2022-12-05T23:18:46.406Z,58.13
2022-12-05T23:21:16.335Z,58.16
2022-12-05T23:23:45.246Z,58.05
2022-12-05T23:26:12.792Z,58.23
2022-12-05T23:28:40.438Z,58.25
2022-12-05T23:31:08.100Z,58.44
2022-12-05T23:33:35.672Z,58.25
2022-12-05T23:36:03.233Z,58.24
2022-12-05T23:38:30.767Z,58.23
2022-12-05T23:41:00.999Z,58.32
2022-12-05T23:43:28.681Z,58.14
2022-12-05T23:45:56.216Z,58.08
2022-12-05T23:48:23.757Z,58.11
2022-12-05T23:51:00.959Z,58.05
2022-12-05T23:53:28.717Z,58.02
2022-12-05T23:55:56.372Z,58.01
2022-12-05T23:58:25.238Z,58.04
